Terminal Aerodrome Forecast
Issued by NWS Northern Indiana

Home | Current Version | Previous Version | Graphics & Text | Print | Product List | Glossary On
Versions: 1 2 3 4 5 6 7 8 9 10 11 12 13 14 15 16 17 18
049
FTUS43 KIWX 231139
TAFFWA
TAF
KFWA 231139Z 2312/2412 01010KT 1 1/2SM BR OVC003
     FM231500 01010KT 3SM -RA BR OVC004
     FM232200 32008KT 4SM BR OVC003=

USA.gov is the U.S. government's official web portal to all federal, state and local government web resources and services.